Time;durP1;ratioP1;P1;durP2;ratioP2;P2;SDS_P1;SDS_P2;PMS_P1;PMS_P2;Temp;Humidity;BMP_temperature;BMP_pressure;BME280_temperature;BME280_humidity;BME280_pressure;Samples;Min_cycle;Max_cycle;Signal;HPM_P1;HPM_P2
2023/08/23 00:00:01;;;;;;;30.30;5.83;;;29.00;54.70;;;;;;5069604;28;20202;-73
2023/08/23 00:02:28;;;;;;;27.50;5.50;;;29.00;54.10;;;;;;5075084;28;20660;-76
2023/08/23 00:04:55;;;;;;;32.93;6.07;;;29.00;54.10;;;;;;5081581;28;20222;-77
2023/08/23 00:07:23;;;;;;;53.60;7.70;;;29.00;54.10;;;;;;5085206;28;20285;-78
2023/08/23 00:09:50;;;;;;;33.83;6.03;;;29.00;54.10;;;;;;5089126;28;20291;-76
2023/08/23 00:12:17;;;;;;;29.10;5.77;;;29.00;54.10;;;;;;5089688;28;20309;-78
2023/08/23 00:14:44;;;;;;;33.17;5.83;;;29.00;54.10;;;;;;5069720;28;20293;-78
2023/08/23 00:17:11;;;;;;;28.83;5.87;;;29.00;54.10;;;;;;5076467;28;20283;-76
2023/08/23 00:19:38;;;;;;;31.70;6.30;;;28.90;54.10;;;;;;5086968;28;20191;-74
2023/08/23 00:22:05;;;;;;;31.50;6.10;;;29.00;54.20;;;;;;5073539;28;20210;-73
2023/08/23 00:24:33;;;;;;;34.53;6.23;;;29.00;54.20;;;;;;5068724;28;20237;-73
2023/08/23 00:27:00;;;;;;;35.33;6.30;;;28.90;54.70;;;;;;5068957;28;20827;-73
2023/08/23 00:29:27;;;;;;;27.83;5.77;;;28.90;54.10;;;;;;5068457;28;20307;-74
2023/08/23 00:31:54;;;;;;;43.97;7.30;;;28.90;54.10;;;;;;5068029;28;20195;-73
2023/08/23 00:34:21;;;;;;;26.77;5.37;;;28.90;54.10;;;;;;5063482;28;20204;-74
2023/08/23 00:36:48;;;;;;;35.90;6.13;;;28.80;54.10;;;;;;5068132;28;20298;-73
2023/08/23 00:39:15;;;;;;;26.13;5.47;;;28.90;54.10;;;;;;5068076;28;20300;-74
2023/08/23 00:41:44;;;;;;;33.07;6.20;;;28.90;54.20;;;;;;5079094;28;20203;-74
2023/08/23 00:44:11;;;;;;;38.37;6.53;;;28.90;54.10;;;;;;5081176;28;20277;-75
2023/08/23 00:46:39;;;;;;;35.87;6.60;;;28.90;54.10;;;;;;5066521;28;20202;-75
2023/08/23 00:49:07;;;;;;;31.47;6.10;;;28.80;54.10;;;;;;5067698;28;20200;-74
2023/08/23 00:51:35;;;;;;;31.60;6.10;;;28.90;54.10;;;;;;5065989;28;20301;-74
2023/08/23 00:54:03;;;;;;;45.07;7.33;;;28.80;54.10;;;;;;5066622;28;20231;-75
2023/08/23 00:56:31;;;;;;;27.90;5.67;;;28.80;54.10;;;;;;5086137;28;20218;-75
2023/08/23 00:59:00;;;;;;;29.57;6.33;;;28.80;54.10;;;;;;5088164;28;20306;-75
2023/08/23 01:01:27;;;;;;;47.93;7.40;;;28.80;54.10;;;;;;5075959;28;20587;-74
2023/08/23 01:03:57;;;;;;;67.03;9.23;;;28.80;54.10;;;;;;5064790;28;20279;-76
2023/08/23 01:06:35;;;;;;;32.37;6.23;;;28.80;54.10;;;;;;5067739;28;20199;-74
2023/08/23 01:09:10;;;;;;;27.73;5.53;;;28.80;54.10;;;;;;5085127;28;20309;-74
2023/08/23 01:11:44;;;;;;;30.67;6.10;;;28.80;54.10;;;;;;5079968;28;20313;-74
2023/08/23 01:14:21;;;;;;;33.37;6.10;;;28.80;54.10;;;;;;5083487;28;20286;-74
2023/08/23 01:16:49;;;;;;;35.87;6.13;;;28.80;54.10;;;;;;5066471;28;20204;-75
2023/08/23 01:19:39;;;;;;;33.03;5.97;;;28.70;54.10;;;;;;5086497;28;20205;-76
2023/08/23 01:22:09;;;;;;;47.70;7.57;;;28.80;54.10;;;;;;5066143;28;20200;-75
2023/08/23 01:24:37;;;;;;;30.33;5.90;;;28.80;54.10;;;;;;5074951;28;20231;-74
2023/08/23 01:27:05;;;;;;;30.53;6.00;;;28.70;54.10;;;;;;5066807;28;20195;-75
2023/08/23 01:29:31;;;;;;;48.17;7.63;;;28.80;54.10;;;;;;5065785;28;20689;-74
2023/08/23 01:32:11;;;;;;;33.73;6.10;;;28.70;54.10;;;;;;5066549;28;20260;-73
2023/08/23 01:34:45;;;;;;;49.10;7.80;;;28.70;54.10;;;;;;5061072;28;20934;-74
2023/08/23 01:37:12;;;;;;;33.00;6.20;;;28.70;54.10;;;;;;5064892;28;20282;-74
2023/08/23 01:39:42;;;;;;;67.70;9.00;;;28.70;54.10;;;;;;5075842;28;20214;-74
2023/08/23 01:42:09;;;;;;;30.27;5.87;;;28.70;54.10;;;;;;5065250;28;20203;-74
2023/08/23 01:44:36;;;;;;;30.33;6.10;;;28.70;54.10;;;;;;5066396;28;20223;-73
2023/08/23 01:47:03;;;;;;;33.67;6.40;;;28.70;54.10;;;;;;5064970;28;20708;-74
2023/08/23 01:49:30;;;;;;;35.73;6.17;;;28.70;54.10;;;;;;5073000;28;20209;-73
2023/08/23 01:51:57;;;;;;;35.33;6.53;;;28.70;54.20;;;;;;5066857;28;20282;-73
2023/08/23 01:54:24;;;;;;;32.93;6.67;;;28.70;54.20;;;;;;5066915;28;20207;-73
2023/08/23 01:56:52;;;;;;;29.20;5.87;;;28.70;54.20;;;;;;5074291;28;20278;-73
2023/08/23 01:59:19;;;;;;;33.13;6.30;;;28.60;54.10;;;;;;5090499;28;20218;-73
2023/08/23 02:01:46;;;;;;;33.40;6.07;;;28.70;54.20;;;;;;5091618;28;20297;-74
2023/08/23 02:04:14;;;;;;;28.83;5.87;;;28.60;54.10;;;;;;5078092;28;20246;-74
2023/08/23 02:06:41;;;;;;;30.77;5.73;;;28.60;54.70;;;;;;5071599;28;20188;-73
2023/08/23 02:09:08;;;;;;;27.73;5.70;;;28.60;54.70;;;;;;5083962;28;20201;-73
2023/08/23 02:11:36;;;;;;;40.63;6.63;;;28.60;54.10;;;;;;5088229;28;20286;-74
2023/08/23 02:14:04;;;;;;;50.20;7.63;;;28.60;54.10;;;;;;5086818;28;20191;-73
2023/08/23 02:16:31;;;;;;;28.13;5.80;;;28.60;54.10;;;;;;5089298;28;20565;-74
2023/08/23 02:18:58;;;;;;;33.33;6.27;;;28.60;54.10;;;;;;5088434;28;20312;-73
2023/08/23 02:21:25;;;;;;;28.83;5.50;;;28.60;54.10;;;;;;5086060;28;20199;-73
2023/08/23 02:23:52;;;;;;;32.13;5.80;;;28.50;54.00;;;;;;5071361;28;20222;-74
2023/08/23 02:26:19;;;;;;;42.53;6.90;;;28.50;54.00;;;;;;5068472;28;20319;-74
2023/08/23 02:28:46;;;;;;;29.90;5.67;;;28.50;54.00;;;;;;5070047;28;20290;-73
2023/08/23 02:31:14;;;;;;;36.67;6.30;;;28.50;54.10;;;;;;5076007;28;20286;-73
2023/08/23 02:33:41;;;;;;;31.83;6.33;;;28.50;54.10;;;;;;5078115;28;20230;-73
2023/08/23 02:36:08;;;;;;;38.70;6.43;;;28.50;54.10;;;;;;5069310;28;20302;-74
2023/08/23 02:38:35;;;;;;;28.93;5.77;;;28.50;54.10;;;;;;5076734;28;20214;-74
2023/08/23 02:41:02;;;;;;;29.17;5.97;;;28.50;54.10;;;;;;5084640;28;20230;-74
2023/08/23 02:43:29;;;;;;;33.10;6.00;;;28.50;54.10;;;;;;5070773;28;20643;-73
2023/08/23 02:45:56;;;;;;;27.67;5.73;;;28.50;54.10;;;;;;5067116;28;20238;-74
2023/08/23 02:48:25;;;;;;;31.57;5.87;;;28.50;54.10;;;;;;5068721;28;20290;-74
2023/08/23 02:50:51;;;;;;;42.87;7.03;;;28.40;54.10;;;;;;5071994;28;20246;-73
2023/08/23 02:53:18;;;;;;;30.00;6.20;;;28.40;54.10;;;;;;5071233;28;20290;-73
2023/08/23 02:55:45;;;;;;;31.77;6.17;;;28.40;54.10;;;;;;5067905;28;20238;-73
2023/08/23 02:58:12;;;;;;;28.60;5.93;;;28.40;54.10;;;;;;5069622;28;20290;-75
2023/08/23 03:00:39;;;;;;;50.60;7.80;;;28.40;54.10;;;;;;5075480;28;20657;-75
2023/08/23 03:03:06;;;;;;;33.50;6.57;;;28.40;54.10;;;;;;5077765;28;20209;-75
2023/08/23 03:05:35;;;;;;;58.63;8.40;;;28.40;54.70;;;;;;5068228;28;20237;-74
2023/08/23 03:08:01;;;;;;;51.37;7.83;;;28.40;54.80;;;;;;5067156;28;20294;-74
2023/08/23 03:10:28;;;;;;;30.10;6.37;;;28.40;54.10;;;;;;5070047;28;20290;-74
2023/08/23 03:12:55;;;;;;;32.87;6.10;;;28.40;54.10;;;;;;5086483;28;20281;-74
2023/08/23 03:15:22;;;;;;;70.20;9.33;;;28.40;54.10;;;;;;5082805;28;20195;-74
2023/08/23 03:17:49;;;;;;;30.47;6.23;;;28.40;54.10;;;;;;5069807;28;20292;-75
2023/08/23 03:20:16;;;;;;;69.20;9.40;;;28.30;54.10;;;;;;5078497;28;20231;-74
2023/08/23 03:22:45;;;;;;;27.60;5.80;;;28.30;54.00;;;;;;5079356;28;20253;-74
2023/08/23 03:25:12;;;;;;;34.13;6.30;;;28.30;54.00;;;;;;5081610;28;20234;-74
2023/08/23 03:27:39;;;;;;;27.27;5.80;;;28.30;54.10;;;;;;5068872;28;20242;-74
2023/08/23 03:30:07;;;;;;;37.33;6.57;;;28.30;54.00;;;;;;5073077;28;20230;-74
2023/08/23 03:32:34;;;;;;;55.73;8.23;;;28.30;54.10;;;;;;5071206;28;20205;-74
2023/08/23 03:35:01;;;;;;;32.07;5.93;;;28.30;54.10;;;;;;5068146;28;20401;-74
2023/08/23 03:37:28;;;;;;;49.43;7.40;;;28.30;54.10;;;;;;5071112;28;20282;-74
2023/08/23 03:39:56;;;;;;;34.87;6.23;;;28.30;54.10;;;;;;5089303;28;20214;-74
2023/08/23 03:42:23;;;;;;;35.53;6.40;;;28.30;54.10;;;;;;5067182;28;20206;-75
2023/08/23 03:44:50;;;;;;;53.00;7.83;;;28.30;54.10;;;;;;5069052;28;20278;-76
2023/08/23 03:47:17;;;;;;;37.47;6.43;;;28.30;54.10;;;;;;5068108;28;20287;-74
2023/08/23 03:49:44;;;;;;;34.70;6.27;;;28.30;54.10;;;;;;5075328;28;20244;-76
2023/08/23 03:52:11;;;;;;;45.33;7.33;;;28.30;54.10;;;;;;5069834;28;20227;-76
2023/08/23 03:54:38;;;;;;;29.90;6.20;;;28.30;54.10;;;;;;5072787;28;20629;-76
2023/08/23 03:57:06;;;;;;;39.17;6.67;;;28.20;54.00;;;;;;5068923;28;20294;-74
2023/08/23 03:59:33;;;;;;;45.30;7.27;;;28.30;54.10;;;;;;5069163;28;20298;-74
2023/08/23 04:02:00;;;;;;;27.90;5.97;;;28.20;54.10;;;;;;5065320;28;20203;-75
2023/08/23 04:04:27;;;;;;;29.67;6.00;;;28.30;54.10;;;;;;5087195;28;20293;-74
2023/08/23 04:06:54;;;;;;;29.73;6.07;;;28.20;54.10;;;;;;5088253;28;20231;-75
2023/08/23 04:09:21;;;;;;;33.30;6.17;;;28.20;54.10;;;;;;5087110;28;20199;-76
2023/08/23 04:11:48;;;;;;;24.10;5.57;;;28.20;54.10;;;;;;5087220;28;20199;-74
2023/08/23 04:14:17;;;;;;;31.30;6.00;;;28.20;54.10;;;;;;5084950;28;20290;-74
2023/08/23 04:16:44;;;;;;;31.93;6.37;;;28.20;54.10;;;;;;5088898;28;20833;-75
2023/08/23 04:19:11;;;;;;;28.40;5.83;;;28.20;54.20;;;;;;5083302;28;20270;-74
2023/08/23 04:21:37;;;;;;;50.60;8.10;;;28.20;54.20;;;;;;5068390;28;20282;-74
2023/08/23 04:24:05;;;;;;;28.67;6.13;;;28.20;54.10;;;;;;5068292;28;20220;-74
2023/08/23 04:26:32;;;;;;;30.93;6.30;;;28.20;54.20;;;;;;5083585;28;20234;-73
2023/08/23 04:28:58;;;;;;;32.87;6.67;;;28.20;54.20;;;;;;5088618;28;20297;-75
2023/08/23 04:31:27;;;;;;;51.73;8.00;;;28.20;54.20;;;;;;5087359;28;20197;-75
2023/08/23 04:33:55;;;;;;;32.00;6.07;;;28.20;54.20;;;;;;5089074;28;20387;-73
2023/08/23 04:36:22;;;;;;;35.13;6.53;;;28.20;54.20;;;;;;5082477;28;20637;-74
2023/08/23 04:38:49;;;;;;;37.83;6.63;;;28.20;54.20;;;;;;5068957;28;20290;-74
2023/08/23 04:41:16;;;;;;;26.70;5.87;;;28.20;54.20;;;;;;5066710;28;20204;-75
2023/08/23 04:43:42;;;;;;;33.67;6.37;;;28.20;54.20;;;;;;5062006;28;20200;-74
2023/08/23 04:46:09;;;;;;;41.65;7.18;;;28.20;54.20;;;;;;5070040;28;20450;-78
2023/08/23 04:48:38;;;;;;;35.87;6.50;;;28.20;54.30;;;;;;5067428;28;20191;-77
2023/08/23 04:51:09;;;;;;;32.80;6.90;;;28.20;54.30;;;;;;5067645;28;20210;-78
2023/08/23 04:53:36;;;;;;;48.13;7.97;;;28.20;54.30;;;;;;5065309;28;20214;-78
2023/08/23 04:56:03;;;;;;;29.30;6.60;;;28.20;54.20;;;;;;5067205;28;20735;-78
2023/08/23 04:58:30;;;;;;;48.83;7.87;;;28.20;54.20;;;;;;5066185;28;20293;-78
2023/08/23 05:01:03;;;;;;;35.10;6.83;;;28.20;54.20;;;;;;5067004;28;20207;-78
2023/08/23 05:03:30;;;;;;;32.40;6.70;;;28.20;54.20;;;;;;5061616;28;20200;-78
2023/08/23 05:05:58;;;;;;;34.97;6.97;;;28.20;54.20;;;;;;5065713;28;20309;-78
2023/08/23 05:08:25;;;;;;;38.23;7.03;;;28.20;54.20;;;;;;5062804;28;20283;-77
2023/08/23 05:10:53;;;;;;;46.57;8.03;;;28.20;54.20;;;;;;5072960;28;20657;-76
2023/08/23 05:13:20;;;;;;;28.00;6.30;;;28.20;54.30;;;;;;5078019;28;20199;-78
2023/08/23 05:15:52;;;;;;;44.53;7.50;;;28.20;54.20;;;;;;5067085;28;20203;-78
2023/08/23 05:18:19;;;;;;;65.60;9.67;;;28.20;54.30;;;;;;5066597;28;20214;-78
2023/08/23 05:20:46;;;;;;;46.70;7.80;;;28.20;54.20;;;;;;5086040;28;20206;-77
2023/08/23 05:23:15;;;;;;;31.40;6.87;;;28.10;54.20;;;;;;5079897;28;20569;-77
2023/08/23 05:25:42;;;;;;;44.80;7.70;;;28.10;54.20;;;;;;5071450;28;20241;-77
2023/08/23 05:28:08;;;;;;;25.87;6.00;;;28.10;54.20;;;;;;5067764;28;20271;-77
2023/08/23 05:30:39;;;;;;;68.20;10.33;;;28.20;54.30;;;;;;5074861;28;20195;-77
2023/08/23 05:33:07;;;;;;;38.40;7.20;;;28.10;54.20;;;;;;5087831;28;20217;-77
2023/08/23 05:35:34;;;;;;;29.83;6.73;;;28.10;54.20;;;;;;5075422;28;20215;-76
2023/08/23 05:38:01;;;;;;;68.27;10.67;;;28.10;54.20;;;;;;5064149;28;21106;-77
2023/08/23 05:40:30;;;;;;;29.73;6.53;;;28.10;54.20;;;;;;5067094;28;20647;-75
2023/08/23 05:42:58;;;;;;;29.43;6.47;;;28.10;54.20;;;;;;5062512;28;20204;-75
2023/08/23 05:45:26;;;;;;;44.17;7.93;;;28.10;54.30;;;;;;5055419;28;20669;-76
2023/08/23 05:47:54;;;;;;;39.40;7.53;;;28.10;54.30;;;;;;5065395;28;20286;-75
2023/08/23 05:50:22;;;;;;;35.67;7.00;;;28.10;54.80;;;;;;5065441;28;20203;-76
2023/08/23 05:52:49;;;;;;;27.50;6.47;;;28.10;54.30;;;;;;5068176;28;20206;-75
2023/08/23 05:55:16;;;;;;;41.83;7.57;;;28.10;54.30;;;;;;5067371;28;20242;-76
2023/08/23 05:57:44;;;;;;;27.30;6.67;;;28.10;54.30;;;;;;5064923;28;20230;-76
2023/08/23 06:00:13;;;;;;;39.23;8.10;;;28.10;54.90;;;;;;5080924;28;20198;-76
2023/08/23 06:02:40;;;;;;;30.80;6.87;;;28.10;54.30;;;;;;5074249;28;20199;-76
2023/08/23 06:05:10;;;;;;;34.47;7.30;;;28.10;54.30;;;;;;5087030;28;20290;-76
2023/08/23 06:07:37;;;;;;;32.07;7.20;;;28.10;54.30;;;;;;5073371;28;20236;-76
2023/08/23 06:10:05;;;;;;;36.50;7.50;;;28.10;54.40;;;;;;5082638;28;20222;-75
2023/08/23 06:12:32;;;;;;;42.17;8.17;;;28.00;54.30;;;;;;5085669;28;20245;-76
2023/08/23 06:15:01;;;;;;;36.57;7.37;;;28.00;54.40;;;;;;5084345;28;20195;-77
2023/08/23 06:17:28;;;;;;;83.50;11.43;;;28.10;54.40;;;;;;5076665;28;20622;-74
2023/08/23 06:19:55;;;;;;;39.13;8.63;;;28.10;54.50;;;;;;5064341;28;20223;-72
2023/08/23 06:22:22;;;;;;;37.87;8.73;;;28.10;54.50;;;;;;5067839;28;20241;-70
2023/08/23 06:24:49;;;;;;;25.17;7.53;;;28.10;54.50;;;;;;5066582;28;20207;-76
2023/08/23 06:27:16;;;;;;;34.33;8.33;;;28.10;54.40;;;;;;5061987;28;20671;-73
2023/08/23 06:29:43;;;;;;;28.50;7.63;;;28.10;54.30;;;;;;5065541;28;20302;-76
2023/08/23 06:32:11;;;;;;;33.07;8.53;;;28.10;54.30;;;;;;5065436;28;20287;-75
2023/08/23 06:34:39;;;;;;;28.40;7.83;;;28.10;54.20;;;;;;5066199;28;20735;-74
2023/08/23 06:37:07;;;;;;;39.10;8.87;;;28.10;54.20;;;;;;5064322;28;20285;-73
2023/08/23 06:39:34;;;;;;;41.60;8.90;;;28.10;54.10;;;;;;5062543;28;20243;-69
2023/08/23 06:42:01;;;;;;;29.17;8.27;;;28.00;54.10;;;;;;5065819;28;20198;-76
2023/08/23 06:44:28;;;;;;;42.57;9.30;;;28.00;54.10;;;;;;5062954;28;20208;-70
2023/08/23 06:46:55;;;;;;;80.47;12.33;;;28.00;54.00;;;;;;5081646;28;20314;-75
2023/08/23 06:49:24;;;;;;;51.37;10.03;;;28.00;54.00;;;;;;5074330;28;20213;-85
2023/08/23 06:51:53;;;;;;;25.10;7.60;;;28.00;54.00;;;;;;5085672;28;20227;-74
2023/08/23 06:54:20;;;;;;;38.43;8.33;;;28.00;54.00;;;;;;5064735;28;20230;-77
2023/08/23 06:56:47;;;;;;;44.10;9.17;;;28.00;54.00;;;;;;5068368;28;20682;-78
2023/08/23 06:59:14;;;;;;;44.33;9.73;;;28.00;54.10;;;;;;5070075;28;20307;-76
2023/08/23 07:01:41;;;;;;;36.23;8.40;;;27.90;54.00;;;;;;5066478;28;20831;-76
2023/08/23 07:04:08;;;;;;;33.03;8.60;;;27.90;54.10;;;;;;5068006;28;20283;-77
2023/08/23 07:06:37;;;;;;;34.03;8.33;;;27.90;54.10;;;;;;5067228;28;20231;-77
2023/08/23 07:09:04;;;;;;;59.13;11.07;;;27.90;54.10;;;;;;5066825;28;20203;-77
2023/08/23 07:11:31;;;;;;;53.83;10.47;;;27.90;54.10;;;;;;5068186;28;20187;-77
2023/08/23 07:13:58;;;;;;;32.23;8.10;;;27.90;54.20;;;;;;5068716;28;20304;-77
2023/08/23 07:16:25;;;;;;;31.77;8.63;;;27.90;54.20;;;;;;5067741;28;20344;-76
2023/08/23 07:18:52;;;;;;;42.63;9.10;;;27.90;54.90;;;;;;5067170;28;20640;-76
2023/08/23 07:21:19;;;;;;;30.17;8.93;;;27.90;54.30;;;;;;5060580;28;20208;-76
2023/08/23 07:23:47;;;;;;;39.87;8.70;;;27.80;54.30;;;;;;5066831;28;20313;-75
2023/08/23 07:26:14;;;;;;;40.53;9.00;;;27.80;54.30;;;;;;5062338;28;20233;-73
2023/08/23 07:28:41;;;;;;;42.90;9.60;;;27.90;54.30;;;;;;5082228;28;20191;-73
2023/08/23 07:31:08;;;;;;;32.83;7.60;;;27.90;54.40;;;;;;5068745;28;20198;-73
2023/08/23 07:33:35;;;;;;;38.23;8.40;;;27.80;54.30;;;;;;5068739;28;20295;-74
2023/08/23 07:36:02;;;;;;;62.53;10.43;;;27.90;54.50;;;;;;5067589;28;20230;-73
2023/08/23 07:38:31;;;;;;;32.13;7.93;;;27.90;54.50;;;;;;5068184;28;20211;-73
2023/08/23 07:41:02;;;;;;;45.00;9.07;;;27.80;54.40;;;;;;5064775;28;20203;-74
2023/08/23 07:43:29;;;;;;;28.37;6.60;;;27.90;54.50;;;;;;5068972;28;20227;-73
2023/08/23 07:45:56;;;;;;;50.03;8.77;;;27.90;54.50;;;;;;5058175;28;20200;-73
2023/08/23 07:48:24;;;;;;;32.13;7.73;;;27.80;54.50;;;;;;5068579;28;20188;-71
2023/08/23 07:50:51;;;;;;;38.43;8.03;;;27.90;54.60;;;;;;5065832;28;20192;-73
2023/08/23 07:53:18;;;;;;;32.77;7.87;;;27.90;54.60;;;;;;5083084;28;20285;-72
2023/08/23 07:55:45;;;;;;;47.77;9.00;;;27.90;54.60;;;;;;5080050;28;20656;-72
2023/08/23 07:58:14;;;;;;;38.67;7.97;;;27.90;55.20;;;;;;5068817;28;20307;-72
2023/08/23 08:00:41;;;;;;;33.17;7.90;;;27.90;54.60;;;;;;5067992;28;20225;-73
2023/08/23 08:03:09;;;;;;;36.97;8.00;;;27.90;54.60;;;;;;5069308;28;20188;-72
2023/08/23 08:05:37;;;;;;;36.60;7.50;;;27.90;54.70;;;;;;5069216;28;20763;-74
2023/08/23 08:08:04;;;;;;;40.87;7.97;;;27.90;54.70;;;;;;5062644;28;20313;-72
2023/08/23 08:10:31;;;;;;;33.90;7.30;;;27.90;54.70;;;;;;5067908;28;20710;-72
2023/08/23 08:13:02;;;;;;;28.53;6.80;;;28.00;54.80;;;;;;5068879;28;20750;-73
2023/08/23 08:15:31;;;;;;;30.43;7.10;;;27.90;54.70;;;;;;5075039;28;20206;-74
2023/08/23 08:17:58;;;;;;;34.43;7.37;;;28.00;54.80;;;;;;5078207;28;20222;-73
2023/08/23 08:20:25;;;;;;;52.43;8.60;;;28.00;54.80;;;;;;5068874;28;20274;-73
2023/08/23 08:22:52;;;;;;;30.07;6.87;;;28.00;54.80;;;;;;5069181;28;20228;-73
2023/08/23 08:25:20;;;;;;;29.13;7.07;;;28.00;54.80;;;;;;5068636;28;20268;-73
2023/08/23 08:27:47;;;;;;;32.67;7.33;;;28.00;54.80;;;;;;5049256;28;20215;-72
2023/08/23 08:30:14;;;;;;;33.07;6.63;;;28.10;54.90;;;;;;5048911;28;20292;-72
2023/08/23 08:32:43;;;;;;;34.00;7.33;;;28.10;54.90;;;;;;5061245;28;20270;-73
2023/08/23 08:35:10;;;;;;;25.13;5.97;;;28.10;54.90;;;;;;5071184;28;20290;-72
2023/08/23 08:37:37;;;;;;;35.00;6.90;;;28.20;55.00;;;;;;5068604;28;20306;-72
2023/08/23 08:40:05;;;;;;;33.67;7.20;;;28.10;54.90;;;;;;5068618;28;20207;-73
2023/08/23 08:42:32;;;;;;;63.00;9.63;;;28.20;54.90;;;;;;5060626;28;20592;-73
2023/08/23 08:44:59;;;;;;;39.03;7.70;;;28.20;54.90;;;;;;5065501;28;20195;-73
2023/08/23 08:47:26;;;;;;;28.20;6.83;;;28.30;55.00;;;;;;5065745;28;20226;-72
2023/08/23 08:49:55;;;;;;;35.03;7.30;;;28.30;55.00;;;;;;5064531;28;20192;-75
2023/08/23 08:52:26;;;;;;;38.23;7.37;;;28.30;55.00;;;;;;5066833;28;20246;-75
2023/08/23 08:54:54;;;;;;;48.60;8.00;;;28.30;55.00;;;;;;5067849;28;20194;-75
2023/08/23 08:57:22;;;;;;;38.20;7.30;;;28.40;55.10;;;;;;5067317;28;20192;-75
2023/08/23 08:59:50;;;;;;;36.83;7.23;;;28.40;55.10;;;;;;5068547;28;20208;-75
2023/08/23 09:02:19;;;;;;;42.60;7.67;;;28.40;55.10;;;;;;5072422;28;20584;-74
2023/08/23 09:04:47;;;;;;;57.60;8.83;;;28.50;55.20;;;;;;5067754;28;20282;-73
2023/08/23 09:07:16;;;;;;;39.63;7.27;;;28.40;55.10;;;;;;5061773;28;20275;-73
2023/08/23 09:09:43;;;;;;;40.20;7.00;;;28.50;55.20;;;;;;5066165;28;20286;-74
2023/08/23 09:12:11;;;;;;;35.17;7.03;;;28.50;55.10;;;;;;5067447;28;20215;-73
2023/08/23 09:14:40;;;;;;;34.83;7.00;;;28.60;55.20;;;;;;5066219;28;20287;-74
2023/08/23 09:17:08;;;;;;;42.97;8.10;;;28.60;55.20;;;;;;5064988;28;20207;-78
2023/08/23 09:19:36;;;;;;;36.77;6.73;;;28.70;55.30;;;;;;5067773;28;20753;-72
2023/08/23 09:22:05;;;;;;;31.57;6.13;;;28.70;55.30;;;;;;5067679;28;20201;-72
2023/08/23 09:24:34;;;;;;;40.23;7.13;;;28.70;55.30;;;;;;5079798;28;20196;-73
2023/08/23 09:27:01;;;;;;;15.70;5.00;;;28.70;55.30;;;;;;5061724;28;20216;-72
2023/08/23 09:29:29;;;;;;;26.97;5.97;;;28.80;55.30;;;;;;5056378;28;20288;-73
2023/08/23 09:31:59;;;;;;;25.63;6.20;;;28.80;55.30;;;;;;5066806;28;20585;-74
2023/08/23 09:34:26;;;;;;;21.63;6.03;;;28.80;55.30;;;;;;5067370;28;20207;-76
2023/08/23 09:36:54;;;;;;;43.77;8.00;;;28.90;55.30;;;;;;5071301;28;20312;-76
2023/08/23 09:39:21;;;;;;;32.70;7.47;;;29.00;55.40;;;;;;5085918;28;20199;-79
2023/08/23 09:41:51;;;;;;;41.33;7.50;;;29.00;55.40;;;;;;5081943;28;20282;-76
2023/08/23 09:44:20;;;;;;;31.30;6.87;;;29.00;55.40;;;;;;5072811;28;20199;-77
2023/08/23 09:46:49;;;;;;;36.63;7.10;;;29.10;55.40;;;;;;5050375;28;20195;-78
2023/08/23 09:49:20;;;;;;;31.63;6.57;;;29.10;55.30;;;;;;5070302;28;20214;-76
2023/08/23 09:51:49;;;;;;;28.80;6.33;;;29.20;55.40;;;;;;5076708;28;20565;-76
2023/08/23 09:54:49;;;;;;;36.90;7.37;;;29.20;55.40;;;;;;5087878;28;20199;-78
2023/08/23 09:57:19;;;;;;;45.70;8.13;;;29.20;55.40;;;;;;5085985;28;20583;-78
2023/08/23 09:59:46;;;;;;;28.63;6.57;;;29.30;55.30;;;;;;5078579;28;20211;-79
2023/08/23 10:02:17;;;;;;;27.57;6.17;;;29.30;55.20;;;;;;5067665;28;20242;-75
2023/08/23 10:04:45;;;;;;;38.27;7.47;;;29.40;55.30;;;;;;5067843;28;20279;-78
2023/08/23 10:07:12;;;;;;;27.53;5.87;;;29.50;55.30;;;;;;5068232;28;20303;-78
2023/08/23 10:09:40;;;;;;;46.10;7.50;;;29.50;55.30;;;;;;5075950;28;20198;-79
2023/08/23 10:12:09;;;;;;;37.83;7.23;;;29.50;55.30;;;;;;5077844;28;20196;-77
2023/08/23 10:14:41;;;;;;;30.83;6.63;;;29.60;55.20;;;;;;5079607;28;20282;-78
2023/08/23 10:17:10;;;;;;;62.50;8.63;;;29.60;55.10;;;;;;5059672;28;20299;-77
2023/08/23 10:19:38;;;;;;;29.30;5.83;;;29.70;55.10;;;;;;5086098;28;20294;-77
2023/08/23 10:22:06;;;;;;;34.90;6.67;;;29.80;55.10;;;;;;5060512;28;20208;-75
2023/08/23 10:24:34;;;;;;;30.00;6.37;;;29.80;55.00;;;;;;5070248;28;20191;-76
2023/08/23 10:27:07;;;;;;;18.07;5.30;;;29.90;55.10;;;;;;5071415;28;20286;-76
2023/08/23 10:29:36;;;;;;;21.37;5.60;;;29.90;54.90;;;;;;5079556;28;20199;-75
2023/08/23 10:32:08;;;;;;;37.38;7.43;;;30.00;54.90;;;;;;5076123;28;20614;-75
2023/08/23 10:34:36;;;;;;;28.97;6.43;;;30.00;55.00;;;;;;5073573;28;20306;-74
2023/08/23 10:37:14;;;;;;;49.70;8.00;;;30.10;55.20;;;;;;5069969;28;20229;-75
2023/08/23 10:39:47;;;;;;;31.47;6.60;;;30.20;55.00;;;;;;5069378;28;20218;-76
2023/08/23 10:42:14;;;;;;;39.23;7.23;;;30.30;54.80;;;;;;5055439;28;20206;-74
2023/08/23 10:44:49;;;;;;;32.85;6.13;;;30.50;54.80;;;;;;5070257;28;20286;-74
2023/08/23 10:47:19;;;;;;;37.37;6.50;;;30.60;54.60;;;;;;5068655;28;20266;-74
2023/08/23 10:49:47;;;;;;;49.60;7.80;;;30.60;54.40;;;;;;5068866;28;20245;-74
2023/08/23 10:52:14;;;;;;;28.30;6.30;;;30.70;54.20;;;;;;5069362;28;20215;-74
2023/08/23 10:54:42;;;;;;;34.17;6.43;;;30.70;54.20;;;;;;5070558;28;20200;-76
2023/08/23 10:57:09;;;;;;;28.48;5.85;;;30.80;54.30;;;;;;5070465;28;20206;-76
2023/08/23 10:59:36;;;;;;;28.87;6.43;;;30.80;54.30;;;;;;5070141;28;20291;-74
2023/08/23 11:02:03;;;;;;;43.63;7.07;;;30.80;54.30;;;;;;5069717;28;20192;-75
2023/08/23 11:04:32;;;;;;;26.23;6.03;;;30.80;54.20;;;;;;5071161;28;20208;-74
2023/08/23 11:06:59;;;;;;;45.77;8.17;;;30.80;54.10;;;;;;5069831;28;20226;-75
2023/08/23 11:09:26;;;;;;;44.83;7.80;;;30.80;54.10;;;;;;5065063;28;20326;-75
2023/08/23 11:11:53;;;;;;;28.87;6.63;;;30.80;54.00;;;;;;5069968;28;20199;-74
2023/08/23 11:14:20;;;;;;;45.70;8.03;;;30.90;54.70;;;;;;5069589;28;20282;-75
2023/08/23 11:16:47;;;;;;;53.75;8.02;;;30.90;54.10;;;;;;5070044;28;20279;-74
2023/08/23 11:19:14;;;;;;;26.40;6.17;;;30.80;54.00;;;;;;5070446;28;20202;-74
2023/08/23 11:21:43;;;;;;;31.33;6.13;;;30.80;54.00;;;;;;5071058;28;20199;-77
2023/08/23 11:24:10;;;;;;;29.60;6.30;;;30.80;54.00;;;;;;5068592;28;20291;-75
2023/08/23 11:26:37;;;;;;;27.77;6.53;;;30.70;53.90;;;;;;5069718;28;20491;-75
2023/08/23 11:29:05;;;;;;;34.53;6.68;;;30.80;54.00;;;;;;5067787;28;20717;-74
2023/08/23 11:31:33;;;;;;;22.23;5.27;;;30.70;54.00;;;;;;5069520;28;20249;-76
2023/08/23 11:34:06;;;;;;;29.50;6.17;;;30.70;54.00;;;;;;5067803;28;20286;-74
2023/08/23 11:36:33;;;;;;;30.67;6.17;;;30.70;54.00;;;;;;5069065;28;20223;-74
2023/08/23 11:39:04;;;;;;;26.60;6.10;;;30.70;54.10;;;;;;5068923;28;20217;-75
2023/08/23 11:41:33;;;;;;;32.15;6.38;;;30.70;54.10;;;;;;5067666;28;20204;-75
2023/08/23 11:44:04;;;;;;;29.87;6.90;;;30.70;54.20;;;;;;5067724;28;20223;-74
2023/08/23 11:46:31;;;;;;;26.20;5.93;;;30.70;54.20;;;;;;5069063;28;20203;-75
2023/08/23 11:48:58;;;;;;;30.13;6.63;;;30.70;54.20;;;;;;5068864;28;20695;-74
2023/08/23 11:51:25;;;;;;;36.10;6.77;;;30.60;54.20;;;;;;5068934;28;20286;-75
2023/08/23 11:53:54;;;;;;;30.42;6.35;;;30.60;54.80;;;;;;5068436;28;20223;-74
2023/08/23 11:56:23;;;;;;;35.13;6.40;;;30.70;54.20;;;;;;5067563;28;20207;-74
2023/08/23 11:58:50;;;;;;;31.15;6.32;;;30.60;54.20;;;;;;5068499;28;20209;-73
2023/08/23 12:01:17;;;;;;;33.83;6.70;;;30.60;54.20;;;;;;5068467;28;20219;-73
2023/08/23 12:03:44;;;;;;;31.20;6.30;;;30.60;54.20;;;;;;5067511;28;20203;-74
2023/08/23 12:06:12;;;;;;;29.67;6.97;;;30.60;54.20;;;;;;5068591;28;20203;-74
2023/08/23 12:08:39;;;;;;;28.37;6.10;;;30.60;54.20;;;;;;5067426;28;20315;-75
2023/08/23 12:11:06;;;;;;;28.07;5.90;;;30.60;54.20;;;;;;5052203;28;21009;-74
2023/08/23 12:13:34;;;;;;;40.17;7.17;;;30.60;54.20;;;;;;5067164;28;20290;-74
2023/08/23 12:16:01;;;;;;;31.33;6.10;;;30.60;54.20;;;;;;5069063;28;20200;-75
2023/08/23 12:18:28;;;;;;;24.47;5.83;;;30.60;54.20;;;;;;5068534;28;20306;-75
2023/08/23 12:20:55;;;;;;;39.03;6.97;;;30.60;54.20;;;;;;5067925;28;20234;-74
2023/08/23 12:23:22;;;;;;;39.90;7.57;;;30.50;54.10;;;;;;5067461;28;20201;-74
2023/08/23 12:25:49;;;;;;;31.27;5.78;;;30.60;54.20;;;;;;5057031;28;20195;-74
2023/08/23 12:28:16;;;;;;;29.38;6.28;;;30.60;54.20;;;;;;5066884;28;20227;-74
2023/08/23 12:30:44;;;;;;;26.83;6.27;;;30.60;54.20;;;;;;5068502;28;20195;-74
2023/08/23 12:33:11;;;;;;;28.43;5.93;;;30.50;54.10;;;;;;5067895;28;20564;-75
2023/08/23 12:35:38;;;;;;;45.93;7.43;;;30.60;54.20;;;;;;5066888;28;20223;-77
2023/08/23 12:38:05;;;;;;;26.83;6.07;;;30.50;54.10;;;;;;5067315;28;20239;-77